Time;durP1;ratioP1;P1;durP2;ratioP2;P2;SDS_P1;SDS_P2;PMS_P1;PMS_P2;Temp;Humidity;BMP_temperature;BMP_pressure;BME280_temperature;BME280_humidity;BME280_pressure;Samples;Min_cycle;Max_cycle;Signal;HPM_P1;HPM_P2
2022/04/03 00:02:08;;;;;;;18.33;9.87;;;;;;;-1.19;80.67;98169.23;2126139;84;21134;-83
2022/04/03 00:05:09;;;;;;;16.07;9.87;;;;;;;-1.21;80.54;98164.44;2126574;84;21365;-85
2022/04/03 00:08:09;;;;;;;17.87;9.87;;;;;;;-1.23;80.67;98167.34;2114557;84;20982;-85
2022/04/03 00:11:10;;;;;;;16.30;10.10;;;;;;;-1.24;80.68;98171.98;2124682;84;20950;-84
2022/04/03 00:14:10;;;;;;;20.97;9.37;;;;;;;-1.24;80.75;98173.27;2112717;84;20978;-84
2022/04/03 00:17:11;;;;;;;13.70;9.00;;;;;;;-1.25;80.56;98172.78;2112786;83;20970;-83
2022/04/03 00:20:11;;;;;;;20.67;8.80;;;;;;;-1.27;80.65;98170.55;2121363;83;20966;-83
2022/04/03 00:23:12;;;;;;;20.47;9.50;;;;;;;-1.29;80.40;98177.77;2121799;84;20919;-84
2022/04/03 00:26:12;;;;;;;24.00;9.17;;;;;;;-1.31;80.42;98183.22;2113563;84;21002;-83
2022/04/03 00:29:13;;;;;;;19.50;10.43;;;;;;;-1.32;80.59;98183.14;2118974;84;20979;-83
2022/04/03 00:32:13;;;;;;;20.67;11.40;;;;;;;-1.31;80.52;98184.50;2117971;84;21010;-84
2022/04/03 00:35:14;;;;;;;23.87;9.47;;;;;;;-1.33;80.59;98187.38;2109241;84;21030;-83
2022/04/03 00:38:15;;;;;;;13.97;8.77;;;;;;;-1.34;80.48;98177.95;2120299;84;21370;-83
2022/04/03 00:41:15;;;;;;;21.47;10.63;;;;;;;-1.33;80.46;98181.39;2102018;83;20967;-83
2022/04/03 00:44:16;;;;;;;18.77;9.37;;;;;;;-1.34;80.42;98189.47;2111097;83;20992;-83
2022/04/03 00:47:16;;;;;;;16.07;8.87;;;;;;;-1.36;80.30;98188.52;2111496;83;20974;-83
2022/04/03 00:50:17;;;;;;;19.30;9.17;;;;;;;-1.37;80.32;98185.89;2101728;83;20982;-84
2022/04/03 00:53:17;;;;;;;15.80;9.83;;;;;;;-1.39;80.44;98188.78;2102055;83;20954;-83
2022/04/03 00:56:18;;;;;;;15.20;8.70;;;;;;;-1.39;80.61;98190.94;2111259;84;20986;-83
2022/04/03 00:59:18;;;;;;;16.77;8.23;;;;;;;-1.42;80.21;98188.23;2120507;83;20995;-83
2022/04/03 01:02:19;;;;;;;14.70;8.27;;;;;;;-1.45;80.43;98194.88;2120270;84;21050;-83
2022/04/03 01:05:19;;;;;;;15.00;8.07;;;;;;;-1.45;80.28;98195.77;2120758;84;20940;-83
2022/04/03 01:08:20;;;;;;;17.40;7.87;;;;;;;-1.50;80.21;98188.66;2103704;84;20968;-84
2022/04/03 01:11:23;;;;;;;16.87;8.77;;;;;;;-1.51;80.31;98194.19;2101666;84;21006;-83
2022/04/03 01:14:24;;;;;;;19.53;9.13;;;;;;;-1.55;80.24;98191.00;2111876;84;20983;-83
2022/04/03 01:17:24;;;;;;;15.97;8.23;;;;;;;-1.57;80.18;98193.02;2092167;84;20939;-84
2022/04/03 01:20:25;;;;;;;15.70;8.90;;;;;;;-1.60;80.14;98197.58;2091714;85;21364;-83
2022/04/03 01:23:26;;;;;;;19.77;8.97;;;;;;;-1.62;80.27;98200.06;2091984;84;20958;-83
2022/04/03 01:26:28;;;;;;;15.30;7.80;;;;;;;-1.62;80.27;98201.75;2079076;85;21042;-83
2022/04/03 01:29:28;;;;;;;20.60;8.83;;;;;;;-1.62;80.22;98200.06;2091612;84;21354;-83
2022/04/03 01:32:29;;;;;;;13.80;7.27;;;;;;;-1.63;80.23;98203.83;2118377;84;21026;-83
2022/04/03 01:38:32;;;;;;;14.97;9.00;;;;;;;-1.63;80.24;98207.67;2100481;84;21066;-84
2022/04/03 01:41:32;;;;;;;22.40;9.20;;;;;;;-1.63;80.29;98212.78;2111595;84;21413;-84
2022/04/03 01:44:33;;;;;;;21.97;10.33;;;;;;;-1.63;80.05;98212.78;2118904;84;20959;-83
2022/04/03 01:47:34;;;;;;;16.17;8.67;;;;;;;-1.64;80.16;98213.59;2113982;84;20943;-83
2022/04/03 01:50:35;;;;;;;21.80;9.90;;;;;;;-1.66;80.12;98210.95;2113433;83;21043;-83
2022/04/03 01:53:35;;;;;;;15.20;8.80;;;;;;;-1.65;80.13;98212.72;2120672;83;20939;-83
2022/04/03 01:56:36;;;;;;;15.83;7.97;;;;;;;-1.65;80.05;98211.44;2119614;84;20970;-85
2022/04/03 01:59:36;;;;;;;14.57;8.33;;;;;;;-1.64;79.95;98212.31;2110722;83;21014;-83
2022/04/03 02:02:37;;;;;;;16.70;8.60;;;;;;;-1.65;79.87;98210.55;2117760;84;21414;-85
2022/04/03 02:05:38;;;;;;;12.57;7.63;;;;;;;-1.62;79.74;98210.70;2119969;84;20942;-85
2022/04/03 02:08:39;;;;;;;16.40;8.03;;;;;;;-1.63;79.76;98214.95;2117654;84;20959;-83
2022/04/03 02:11:39;;;;;;;14.90;7.67;;;;;;;-1.61;79.71;98218.86;2117497;84;20950;-84
2022/04/03 02:14:40;;;;;;;13.63;8.07;;;;;;;-1.63;79.45;98221.75;2119600;84;20990;-83
2022/04/03 02:17:40;;;;;;;196.93;115.80;;;;;;;-1.63;80.50;98219.19;2119493;84;20970;-84
2022/04/03 02:20:41;;;;;;;19.47;12.50;;;;;;;4.59;100.00;98201.41;2119588;84;21268;-83
2022/04/03 02:23:42;;;;;;;12.27;7.37;;;;;;;7.86;79.81;98191.24;2111778;84;20997;-83
2022/04/03 02:26:42;;;;;;;10.90;6.60;;;;;;;5.45;65.33;98210.36;2118742;84;20932;-83
2022/04/03 02:29:43;;;;;;;13.80;7.07;;;;;;;3.40;67.03;98219.61;2111991;84;20978;-84
2022/04/03 02:32:43;;;;;;;11.73;6.40;;;;;;;2.04;68.26;98227.16;2117918;84;21359;-83
2022/04/03 02:35:44;;;;;;;12.13;7.10;;;;;;;1.07;69.22;98235.95;2118218;84;21065;-83
2022/04/03 02:38:44;;;;;;;16.27;8.10;;;;;;;0.36;71.19;98236.45;2120343;84;20939;-83
2022/04/03 02:41:45;;;;;;;16.50;7.47;;;;;;;-0.16;72.34;98245.73;2120722;84;21394;-84
2022/04/03 02:44:45;;;;;;;17.17;7.90;;;;;;;-0.60;73.29;98246.72;2120266;84;21042;-84
2022/04/03 02:47:46;;;;;;;13.53;7.60;;;;;;;-0.93;74.38;98253.70;2119574;84;20950;-83
2022/04/03 02:50:47;;;;;;;12.43;7.27;;;;;;;-1.17;75.11;98253.41;2112490;83;20967;-83
2022/04/03 02:53:47;;;;;;;20.43;7.80;;;;;;;-1.38;75.81;98254.14;2120053;83;20998;-82
2022/04/03 02:56:48;;;;;;;11.33;6.67;;;;;;;-1.57;76.59;98260.44;2119253;84;20971;-83
2022/04/03 02:59:48;;;;;;;15.87;7.60;;;;;;;-1.75;77.02;98261.64;2113464;84;20992;-84
2022/04/03 03:02:49;;;;;;;14.53;6.53;;;;;;;-1.82;77.47;98259.98;2113532;84;21057;-84
2022/04/03 03:05:50;;;;;;;13.47;7.07;;;;;;;-1.92;77.84;98259.92;2118679;84;21067;-84
2022/04/03 03:08:51;;;;;;;13.20;8.30;;;;;;;-2.02;78.02;98271.76;2119652;84;20950;-84
2022/04/03 03:11:51;;;;;;;17.90;7.73;;;;;;;-2.08;78.38;98271.04;2119780;84;20944;-84
2022/04/03 03:14:51;;;;;;;18.07;7.67;;;;;;;-2.12;78.73;98270.41;2120692;84;21039;-84
2022/04/03 03:17:52;;;;;;;12.30;7.00;;;;;;;-2.17;78.61;98271.84;2119854;84;20987;-83
2022/04/03 03:20:53;;;;;;;11.23;6.87;;;;;;;-2.21;78.61;98276.72;2112689;83;21330;-83
2022/04/03 03:23:53;;;;;;;14.83;7.87;;;;;;;-2.23;78.97;98279.59;2121331;84;21392;-84
2022/04/03 03:26:54;;;;;;;14.13;7.50;;;;;;;-2.30;78.98;98278.39;2113520;84;21010;-83
2022/04/03 03:29:54;;;;;;;22.23;7.90;;;;;;;-2.36;79.18;98281.50;2117244;84;20955;-84
2022/04/03 03:32:55;;;;;;;13.43;8.07;;;;;;;-2.40;79.26;98283.82;2119337;83;20998;-83
2022/04/03 03:35:55;;;;;;;17.70;9.90;;;;;;;-2.45;79.35;98287.41;2120110;84;20960;-83
2022/04/03 03:38:56;;;;;;;14.30;7.20;;;;;;;-2.48;79.51;98294.03;2120407;84;20986;-84
2022/04/03 03:41:56;;;;;;;10.50;7.00;;;;;;;-2.52;79.55;98297.22;2119677;83;20943;-84
2022/04/03 03:44:58;;;;;;;14.77;7.07;;;;;;;-2.61;80.05;98299.73;2119683;84;21006;-84
2022/04/03 03:47:59;;;;;;;11.90;7.77;;;;;;;-2.65;79.81;98293.98;2119605;84;20994;-83
2022/04/03 03:51:00;;;;;;;14.23;7.90;;;;;;;-2.65;80.04;98300.36;2119343;84;21031;-84
2022/04/03 03:54:00;;;;;;;12.10;7.10;;;;;;;-2.66;80.13;98306.27;2115252;83;20982;-83
2022/04/03 03:57:01;;;;;;;16.17;7.27;;;;;;;-2.67;80.14;98306.19;2122866;83;21042;-83
2022/04/03 04:00:02;;;;;;;9.90;6.77;;;;;;;-2.67;80.16;98310.89;2113357;84;21014;-84
2022/04/03 04:03:03;;;;;;;12.93;6.97;;;;;;;-2.66;80.14;98313.05;2120136;83;21418;-83
2022/04/03 04:06:03;;;;;;;10.20;6.47;;;;;;;-2.70;80.02;98317.12;2120198;84;21018;-83
2022/04/03 04:09:04;;;;;;;18.40;7.93;;;;;;;-2.70;79.95;98321.34;2119545;84;20981;-83
2022/04/03 04:12:09;;;;;;;14.18;7.78;;;;;;;-2.73;79.95;98319.91;2111844;84;21003;-83
2022/04/03 04:15:09;;;;;;;13.00;6.80;;;;;;;-2.76;80.15;98325.72;2119797;84;21118;-84
2022/04/03 04:18:10;;;;;;;17.10;8.23;;;;;;;-2.79;80.06;98324.67;2119616;84;21002;-83
2022/04/03 04:21:11;;;;;;;15.20;8.63;;;;;;;-2.79;80.25;98331.06;2113068;84;20950;-84
2022/04/03 04:24:12;;;;;;;19.40;8.60;;;;;;;-2.80;80.26;98326.34;2114650;84;21390;-83
2022/04/03 04:27:13;;;;;;;20.53;8.90;;;;;;;-2.79;80.11;98335.77;2122720;84;20939;-82
2022/04/03 04:30:14;;;;;;;16.70;9.03;;;;;;;-2.79;80.10;98333.61;2113627;84;20962;-84
2022/04/03 04:33:14;;;;;;;14.83;9.27;;;;;;;-2.78;80.06;98343.91;2114141;84;21053;-84
2022/04/03 04:36:15;;;;;;;16.93;9.70;;;;;;;-2.76;80.07;98344.88;2112750;83;21006;-83
2022/04/03 04:39:18;;;;;;;16.97;8.43;;;;;;;-2.75;80.04;98346.64;2113317;84;21407;-84
2022/04/03 04:42:19;;;;;;;14.93;8.17;;;;;;;-2.74;80.08;98350.95;2113149;84;20967;-84
2022/04/03 04:45:20;;;;;;;17.90;7.60;;;;;;;-2.69;79.94;98353.77;2119831;83;20959;-84
2022/04/03 04:48:21;;;;;;;14.00;7.77;;;;;;;-2.65;79.80;98354.02;2119962;84;21011;-84
2022/04/03 04:51:24;;;;;;;15.17;8.70;;;;;;;-2.62;79.68;98355.86;2119996;84;21026;-81
2022/04/03 04:54:26;;;;;;;11.57;7.57;;;;;;;-2.57;79.63;98356.63;2119890;84;21062;-83
2022/04/03 04:57:27;;;;;;;11.60;7.20;;;;;;;-2.49;79.51;98361.28;2113892;83;21408;-83
2022/04/03 05:00:28;;;;;;;14.20;7.43;;;;;;;-2.43;79.50;98370.55;2120114;84;20947;-84
2022/04/03 05:03:29;;;;;;;16.03;8.47;;;;;;;-2.39;79.24;98368.25;2112091;83;21422;-85
2022/04/03 05:06:29;;;;;;;13.53;8.07;;;;;;;-2.36;79.03;98373.92;2121014;84;20943;-85
2022/04/03 05:09:31;;;;;;;12.37;6.97;;;;;;;-2.31;78.71;98376.33;2119513;83;20951;-85
2022/04/03 05:12:32;;;;;;;9.67;6.63;;;;;;;-2.22;78.81;98389.61;2117353;84;21048;-85
2022/04/03 05:15:35;;;;;;;43.80;13.47;;;;;;;-2.17;78.54;98380.91;2119007;84;21004;-85
2022/04/03 05:18:35;;;;;;;86.77;21.93;;;;;;;-2.09;78.26;98387.31;2113736;83;21007;-84
2022/04/03 05:21:36;;;;;;;67.00;20.43;;;;;;;-2.04;78.13;98390.60;2121608;84;21055;-85
2022/04/03 05:24:37;;;;;;;23.30;10.60;;;;;;;-2.02;77.84;98397.95;2121716;84;21013;-84
2022/04/03 05:27:37;;;;;;;20.57;10.90;;;;;;;-1.97;77.65;98403.31;2112453;83;20951;-84
2022/04/03 05:30:37;;;;;;;14.27;8.07;;;;;;;-1.93;77.28;98414.19;2118953;84;21351;-84
2022/04/03 05:33:39;;;;;;;15.67;8.93;;;;;;;-1.88;77.24;98406.77;2115321;83;21101;-85
2022/04/03 05:36:39;;;;;;;24.53;9.37;;;;;;;-1.80;76.98;98414.05;2113028;83;21038;-85
2022/04/03 05:39:42;;;;;;;16.67;8.33;;;;;;;-1.71;76.97;98417.52;2119958;84;21106;-85
2022/04/03 05:42:42;;;;;;;18.83;8.80;;;;;;;-1.62;76.17;98419.28;2113070;84;20971;-84
2022/04/03 05:45:43;;;;;;;13.23;7.40;;;;;;;-1.55;75.98;98423.92;2120948;84;20967;-83
2022/04/03 05:48:44;;;;;;;13.80;9.40;;;;;;;-1.47;76.06;98420.48;2120601;84;20959;-84
2022/04/03 05:51:45;;;;;;;13.13;7.90;;;;;;;-1.40;75.70;98431.11;2113265;84;20999;-83
2022/04/03 05:54:45;;;;;;;17.53;8.97;;;;;;;-1.31;75.10;98425.18;2119565;84;20982;-83
2022/04/03 05:57:46;;;;;;;15.47;7.63;;;;;;;-1.25;74.70;98438.70;2113463;84;20951;-85
2022/04/03 06:00:46;;;;;;;12.60;7.10;;;;;;;-1.11;75.17;98447.08;2113155;84;20931;-83
2022/04/03 06:03:47;;;;;;;15.67;9.00;;;;;;;-1.06;74.13;98435.39;2115216;84;20967;-82
2022/04/03 06:09:53;;;;;;;22.23;11.73;;;;;;;-0.88;74.34;98438.87;2091022;85;21026;-84
2022/04/03 06:12:54;;;;;;;12.83;8.17;;;;;;;-0.74;73.69;98444.31;2115117;84;20944;-84
2022/04/03 06:15:55;;;;;;;17.80;10.37;;;;;;;-0.60;73.16;98446.67;2120083;84;21022;-83
2022/04/03 06:18:55;;;;;;;15.07;9.50;;;;;;;-0.49;73.03;98446.38;2096984;84;20998;-84
2022/04/03 06:21:58;;;;;;;11.43;7.90;;;;;;;-0.39;72.65;98444.73;2117489;84;21006;-83
2022/04/03 06:24:58;;;;;;;11.67;8.13;;;;;;;-0.23;71.51;98447.63;2114670;84;20955;-84
2022/04/03 06:27:59;;;;;;;15.47;8.80;;;;;;;-0.24;70.78;98458.70;2119113;84;20963;-82
2022/04/03 06:31:00;;;;;;;16.47;8.53;;;;;;;-0.18;70.95;98453.86;2117658;84;20947;-81
2022/04/03 06:34:02;;;;;;;12.93;7.73;;;;;;;-0.07;71.07;98459.09;2109712;84;21437;-83
2022/04/03 06:37:02;;;;;;;12.37;7.70;;;;;;;0.06;69.73;98463.14;2119796;83;21109;-83
2022/04/03 06:40:03;;;;;;;13.30;9.10;;;;;;;0.10;68.96;98467.61;2117547;84;20959;-84
2022/04/03 06:43:04;;;;;;;16.87;10.17;;;;;;;0.08;68.89;98475.64;2112158;84;20959;-84
2022/04/03 06:46:04;;;;;;;14.13;9.03;;;;;;;0.24;69.01;98472.09;2109588;84;21002;-84
2022/04/03 06:49:05;;;;;;;13.87;8.00;;;;;;;0.36;69.18;98479.48;2111578;83;20955;-83
2022/04/03 06:52:05;;;;;;;14.73;8.70;;;;;;;0.57;68.41;98474.03;2111618;83;20951;-83
2022/04/03 06:55:06;;;;;;;15.27;9.80;;;;;;;0.69;67.79;98477.55;2119271;84;21137;-83
2022/04/03 06:58:07;;;;;;;15.27;8.27;;;;;;;0.74;67.65;98478.63;2117641;84;20966;-84
2022/04/03 07:01:08;;;;;;;16.70;10.13;;;;;;;0.89;66.93;98487.92;2106435;84;20963;-84
2022/04/03 07:04:08;;;;;;;14.03;8.57;;;;;;;1.05;66.89;98486.02;2118092;84;21022;-84
2022/04/03 07:07:09;;;;;;;24.23;12.57;;;;;;;1.16;66.16;98492.09;2122007;84;21307;-83
2022/04/03 07:10:10;;;;;;;15.07;9.77;;;;;;;1.17;64.18;98495.13;2121373;84;20986;-83
2022/04/03 07:16:13;;;;;;;15.10;7.93;;;;;;;1.44;64.95;98502.26;2098716;84;20997;-82
2022/04/03 07:19:14;;;;;;;12.90;8.67;;;;;;;1.36;63.77;98499.77;2118791;84;20970;-83
2022/04/03 07:22:14;;;;;;;13.27;8.27;;;;;;;1.45;65.02;98502.73;2111923;83;20931;-83
2022/04/03 07:25:15;;;;;;;18.33;8.40;;;;;;;1.56;63.93;98513.06;2119384;84;20936;-82
2022/04/03 07:28:16;;;;;;;12.80;8.30;;;;;;;1.56;63.16;98508.80;2120213;84;20947;-83
2022/04/03 07:31:16;;;;;;;12.57;8.17;;;;;;;1.65;63.24;98509.98;2110925;84;20946;-83
2022/04/03 07:37:20;;;;;;;11.60;8.20;;;;;;;1.95;62.89;98520.68;2090878;84;21071;-84
2022/04/03 07:40:22;;;;;;;12.20;8.23;;;;;;;2.09;62.17;98520.83;2094795;84;21081;-84
2022/04/03 07:43:23;;;;;;;15.50;7.93;;;;;;;2.13;61.42;98527.44;2099714;84;20987;-84
2022/04/03 07:46:25;;;;;;;12.00;8.40;;;;;;;2.14;61.65;98521.89;2116090;84;20999;-84
2022/04/03 07:49:25;;;;;;;11.03;8.03;;;;;;;1.98;61.35;98531.10;2080166;85;20954;-83
2022/04/03 07:52:26;;;;;;;13.73;8.47;;;;;;;1.89;61.95;98531.61;2092167;85;20955;-83
2022/04/03 07:55:26;;;;;;;14.83;9.00;;;;;;;1.82;62.79;98529.20;2092197;84;20979;-83
2022/04/03 07:58:27;;;;;;;11.17;8.07;;;;;;;1.85;60.90;98540.02;2094333;84;21083;-83
2022/04/03 08:01:28;;;;;;;11.23;8.20;;;;;;;1.86;61.85;98542.66;2118581;84;21315;-82
2022/04/03 08:04:29;;;;;;;14.63;8.53;;;;;;;1.94;62.21;98540.80;2091512;85;21064;-82
2022/04/03 08:07:29;;;;;;;13.63;8.37;;;;;;;2.08;62.23;98549.96;2101045;84;21013;-83
2022/04/03 08:10:29;;;;;;;16.00;8.93;;;;;;;2.27;62.71;98551.58;2108734;84;21242;-82
2022/04/03 08:13:30;;;;;;;12.97;8.93;;;;;;;2.48;60.87;98550.71;2108405;83;20959;-83
2022/04/03 08:16:31;;;;;;;11.67;8.43;;;;;;;2.56;59.36;98554.88;2108651;83;21025;-84
2022/04/03 08:19:37;;;;;;;13.17;7.00;;;;;;;2.48;59.60;98553.70;2110093;83;21041;-84
2022/04/03 08:28:47;;;;;;;9.67;7.87;;;;;;;2.45;58.28;98575.06;2092828;83;20999;-84
2022/04/03 08:31:54;;;;;;;10.23;7.93;;;;;;;2.38;58.45;98578.63;2089950;85;21414;-83
2022/04/03 08:34:58;;;;;;;14.70;9.73;;;;;;;2.31;57.32;98576.22;2098897;84;21406;-85
2022/04/03 08:37:59;;;;;;;18.90;9.40;;;;;;;2.40;58.60;98574.42;2114425;84;21126;-85
2022/04/03 08:41:01;;;;;;;16.33;8.87;;;;;;;2.53;58.17;98578.83;2073184;86;21015;-84
2022/04/03 08:44:07;;;;;;;11.25;7.65;;;;;;;2.58;57.13;98581.98;2085973;84;21041;-84
2022/04/03 08:47:08;;;;;;;13.20;8.10;;;;;;;2.55;55.63;98587.90;2093419;84;21078;-86
2022/04/03 08:50:08;;;;;;;9.10;6.53;;;;;;;2.64;55.82;98595.14;2117784;84;20947;-83
2022/04/03 08:53:09;;;;;;;9.93;6.43;;;;;;;2.65;56.73;98600.77;2103168;84;21015;-84
2022/04/03 08:56:12;;;;;;;10.87;6.37;;;;;;;2.61;55.71;98600.17;2098837;84;21081;-84
2022/04/03 08:59:13;;;;;;;9.60;5.97;;;;;;;2.59;56.19;98594.05;2100028;84;20963;-84
2022/04/03 09:02:13;;;;;;;10.67;7.73;;;;;;;2.60;55.30;98599.67;2120877;84;20927;-84
2022/04/03 09:05:17;;;;;;;10.77;6.47;;;;;;;2.55;55.90;98596.51;2120005;84;21299;-85
2022/04/03 09:08:16;;;;;;;7.73;6.53;;;;;;;2.64;55.38;98607.62;2118026;83;20978;-84
2022/04/03 09:11:20;;;;;;;8.77;6.23;;;;;;;2.77;55.00;98604.70;2100553;84;20916;-86
2022/04/03 09:14:24;;;;;;;9.50;6.87;;;;;;;2.78;53.94;98609.44;2107826;84;21023;-84
2022/04/03 09:17:24;;;;;;;9.17;7.33;;;;;;;2.83;55.65;98610.50;2102667;84;21306;-83
2022/04/03 09:20:25;;;;;;;12.40;8.20;;;;;;;2.94;54.21;98624.67;2116841;84;20919;-85
2022/04/03 09:23:26;;;;;;;12.80;8.87;;;;;;;2.90;53.20;98617.64;2092160;85;21338;-84
2022/04/03 09:26:27;;;;;;;6.90;5.60;;;;;;;2.83;52.93;98622.09;2118567;84;21007;-85
2022/04/03 09:29:28;;;;;;;8.50;6.23;;;;;;;2.91;52.30;98615.53;2092457;84;21354;-84
2022/04/03 09:32:28;;;;;;;6.30;5.07;;;;;;;2.99;53.10;98615.83;2098866;84;21002;-84
2022/04/03 09:35:29;;;;;;;8.23;5.00;;;;;;;2.94;51.65;98620.80;2118564;84;21006;-83
2022/04/03 09:38:30;;;;;;;6.37;4.67;;;;;;;2.84;51.75;98622.56;2109802;84;21343;-84
2022/04/03 09:41:31;;;;;;;7.83;5.50;;;;;;;2.84;52.43;98635.45;2101756;84;20955;-83
2022/04/03 09:44:31;;;;;;;12.37;5.20;;;;;;;2.82;51.23;98627.66;2091474;85;20943;-83
2022/04/03 09:47:33;;;;;;;6.83;5.10;;;;;;;2.91;52.73;98633.58;2109606;84;20966;-84
2022/04/03 09:50:34;;;;;;;6.23;5.00;;;;;;;2.96;51.47;98637.22;2119909;84;20971;-82
2022/04/03 09:53:34;;;;;;;7.60;5.73;;;;;;;2.99;50.40;98640.31;2121705;84;20979;-82
2022/04/03 09:56:37;;;;;;;11.47;5.60;;;;;;;3.12;51.57;98638.67;2108897;84;20983;-82
2022/04/03 09:59:37;;;;;;;6.93;5.77;;;;;;;3.40;51.57;98641.86;2110424;84;20970;-82
2022/04/03 10:02:38;;;;;;;9.57;5.37;;;;;;;3.79;51.38;98646.31;2092115;84;20980;-83
2022/04/03 10:05:38;;;;;;;9.27;6.20;;;;;;;3.78;50.81;98645.85;2091533;84;20924;-83
2022/04/03 10:08:39;;;;;;;7.83;6.20;;;;;;;3.90;52.12;98641.52;2099552;84;20983;-83
2022/04/03 10:11:40;;;;;;;8.43;5.43;;;;;;;4.01;50.78;98650.52;2109214;83;20978;-85
2022/04/03 10:14:40;;;;;;;9.33;6.67;;;;;;;3.90;49.82;98650.16;2119077;84;20994;-84
2022/04/03 10:17:41;;;;;;;9.10;6.80;;;;;;;3.93;50.52;98654.13;2118143;84;20939;-83
2022/04/03 10:20:41;;;;;;;10.40;5.73;;;;;;;4.01;50.98;98653.10;2100422;84;21374;-85
2022/04/03 10:23:42;;;;;;;6.23;5.40;;;;;;;3.93;51.49;98654.55;2119215;84;21410;-85
2022/04/03 10:29:45;;;;;;;8.17;6.37;;;;;;;3.83;50.93;98658.51;2097708;84;20943;-86
2022/04/03 10:32:47;;;;;;;7.67;5.83;;;;;;;3.83;52.01;98661.97;2110526;84;21078;-83
2022/04/03 10:35:48;;;;;;;7.67;5.60;;;;;;;3.76;50.94;98666.45;2120387;84;20982;-84
2022/04/03 10:38:49;;;;;;;8.47;6.37;;;;;;;3.60;49.21;98678.34;2117629;84;21462;-82
2022/04/03 10:41:49;;;;;;;6.80;6.07;;;;;;;3.90;49.08;98664.77;2118224;84;20904;-83
2022/04/03 10:44:50;;;;;;;10.83;5.50;;;;;;;4.04;48.13;98674.75;2116890;84;20915;-83
2022/04/03 10:47:51;;;;;;;10.83;5.13;;;;;;;3.81;46.62;98666.20;2118876;84;20946;-83
2022/04/03 10:50:52;;;;;;;7.87;5.60;;;;;;;3.47;48.76;98669.68;2118904;84;21330;-85
2022/04/03 10:53:53;;;;;;;8.13;5.80;;;;;;;3.43;50.13;98671.65;2112416;84;20963;-85
2022/04/03 10:56:53;;;;;;;6.00;5.17;;;;;;;3.59;50.08;98666.26;2125728;84;21005;-85
2022/04/03 10:59:54;;;;;;;9.63;6.90;;;;;;;3.61;49.89;98667.60;2120612;84;21428;-84
2022/04/03 11:02:54;;;;;;;9.20;6.80;;;;;;;3.49;50.55;98677.95;2113052;84;21071;-84
2022/04/03 11:05:54;;;;;;;9.80;6.93;;;;;;;3.36;50.93;98685.14;2112350;83;20959;-84
2022/04/03 11:08:55;;;;;;;9.07;6.73;;;;;;;3.37;51.25;98672.30;2123474;84;20927;-84
2022/04/03 11:11:57;;;;;;;9.73;5.77;;;;;;;3.94;51.14;98670.09;2118108;84;20979;-84
2022/04/03 11:14:58;;;;;;;6.60;5.77;;;;;;;4.37;49.46;98675.05;2118478;84;21382;-84
2022/04/03 11:17:59;;;;;;;10.20;7.37;;;;;;;4.56;50.04;98671.36;2110807;83;20991;-83
2022/04/03 11:20:59;;;;;;;15.13;8.67;;;;;;;4.51;50.01;98677.21;2118949;84;20966;-83
2022/04/03 11:24:00;;;;;;;8.13;6.90;;;;;;;4.29;50.05;98679.46;2119020;84;21055;-82
2022/04/03 11:27:00;;;;;;;10.13;6.77;;;;;;;4.11;50.83;98689.63;2120763;84;20991;-83
2022/04/03 11:30:01;;;;;;;9.17;6.80;;;;;;;3.63;50.34;98691.77;2119903;84;20990;-83
2022/04/03 11:33:01;;;;;;;10.30;7.50;;;;;;;3.40;50.77;98694.76;2118451;83;21055;-83
2022/04/03 11:36:02;;;;;;;13.73;6.47;;;;;;;3.27;52.72;98691.25;2118201;84;21389;-83
2022/04/03 11:39:02;;;;;;;9.37;6.13;;;;;;;3.10;51.93;98690.61;2107599;83;21018;-83
2022/04/03 11:42:03;;;;;;;7.43;6.03;;;;;;;3.01;52.08;98699.27;2102636;84;20962;-83
2022/04/03 11:45:04;;;;;;;9.30;6.20;;;;;;;2.89;52.13;98700.96;2092142;84;20987;-84
2022/04/03 11:48:04;;;;;;;9.33;6.87;;;;;;;2.88;53.14;98703.95;2092558;84;20959;-83
2022/04/03 11:51:05;;;;;;;7.77;5.90;;;;;;;3.26;52.48;98698.11;2092605;84;20955;-83
2022/04/03 11:54:06;;;;;;;7.63;6.10;;;;;;;3.73;53.15;98690.86;2093427;85;21007;-84
2022/04/03 11:57:07;;;;;;;10.03;6.80;;;;;;;4.26;49.84;98685.41;2108523;84;20951;-84
2022/04/03 12:00:07;;;;;;;7.67;5.60;;;;;;;4.29;48.25;98694.55;2110516;84;20998;-85
2022/04/03 12:03:09;;;;;;;8.27;5.40;;;;;;;4.21;49.18;98690.83;2109668;84;21346;-84
2022/04/03 12:06:09;;;;;;;7.60;5.80;;;;;;;4.28;48.01;98691.50;2121518;84;21006;-85
2022/04/03 12:09:10;;;;;;;7.47;5.67;;;;;;;4.48;48.88;98689.20;2103082;84;20946;-83
2022/04/03 12:12:10;;;;;;;8.03;6.30;;;;;;;4.55;46.09;98694.58;2100240;84;21306;-84
2022/04/03 12:15:12;;;;;;;8.97;5.10;;;;;;;4.40;45.95;98693.24;2110492;84;21394;-85
2022/04/03 12:18:12;;;;;;;7.10;4.53;;;;;;;4.23;46.69;98696.05;2111146;84;21004;-85
2022/04/03 12:21:13;;;;;;;8.70;5.33;;;;;;;4.19;48.17;98698.06;2092451;84;20970;-84
2022/04/03 12:24:13;;;;;;;7.77;5.60;;;;;;;4.34;47.34;98693.03;2108868;84;20987;-83
2022/04/03 12:27:14;;;;;;;5.50;4.30;;;;;;;4.70;45.78;98693.78;2101581;84;20931;-85
2022/04/03 12:30:14;;;;;;;14.90;8.57;;;;;;;4.66;44.44;98695.80;2092780;84;20963;-84
2022/04/03 12:33:15;;;;;;;9.13;6.17;;;;;;;4.55;46.69;98691.99;2090447;84;21078;-84
2022/04/03 12:36:15;;;;;;;8.53;5.13;;;;;;;4.54;45.43;98692.82;2108138;84;21342;-85
2022/04/03 12:39:16;;;;;;;9.80;5.40;;;;;;;4.58;45.90;98693.39;2110196;84;20951;-83
2022/04/03 12:42:17;;;;;;;10.53;5.90;;;;;;;4.54;46.83;98694.11;2110133;84;20991;-84
2022/04/03 12:45:17;;;;;;;11.80;6.07;;;;;;;4.30;46.16;98696.31;2121059;84;21011;-85
2022/04/03 12:48:18;;;;;;;8.70;4.30;;;;;;;3.93;45.87;98701.03;2092976;85;20935;-85
2022/04/03 12:51:20;;;;;;;6.03;4.70;;;;;;;3.98;46.36;98686.57;2093427;85;21014;-85
2022/04/03 12:54:24;;;;;;;5.57;4.00;;;;;;;4.01;46.59;98694.42;2100960;84;21458;-85
2022/04/03 13:00:46;;;;;;;8.30;5.20;;;;;;;4.04;44.95;98691.54;2101863;84;21026;-83
2022/04/03 13:03:46;;;;;;;7.80;5.07;;;;;;;4.29;46.93;98687.22;2109831;84;21006;-83
2022/04/03 13:06:47;;;;;;;8.87;5.50;;;;;;;4.64;45.77;98696.17;2091664;84;20979;-83
2022/04/03 13:09:47;;;;;;;7.67;5.60;;;;;;;4.59;45.55;98684.80;2092284;84;20950;-85
2022/04/03 13:12:48;;;;;;;11.67;7.40;;;;;;;4.54;46.67;98681.19;2102025;84;21007;-85
2022/04/03 13:15:49;;;;;;;12.60;8.43;;;;;;;4.36;46.71;98681.05;2099152;84;21015;-85
2022/04/03 13:18:49;;;;;;;4.83;4.30;;;;;;;4.28;47.71;98688.04;2080009;85;21311;-84
2022/04/03 13:21:50;;;;;;;6.70;5.20;;;;;;;4.16;46.06;98685.91;2113851;84;20991;-84
2022/04/03 13:24:51;;;;;;;8.40;5.90;;;;;;;4.16;47.75;98685.50;2098461;84;21029;-85
2022/04/03 13:27:51;;;;;;;15.87;8.83;;;;;;;4.12;47.04;98686.64;2102802;84;20978;-83
2022/04/03 13:30:51;;;;;;;14.13;9.07;;;;;;;3.95;47.38;98689.92;2109254;84;21037;-84
2022/04/03 13:33:53;;;;;;;9.67;5.00;;;;;;;3.90;47.58;98688.88;2106858;84;21010;-84
2022/04/03 13:36:53;;;;;;;9.13;5.30;;;;;;;3.76;45.80;98691.39;2111153;84;21400;-84
2022/04/03 13:39:54;;;;;;;11.67;7.90;;;;;;;3.51;47.14;98696.06;2116584;84;20995;-84
2022/04/03 13:42:55;;;;;;;14.10;7.43;;;;;;;3.52;49.02;98690.09;2105390;84;21083;-84
2022/04/03 13:45:59;;;;;;;6.97;4.67;;;;;;;3.74;47.01;98687.88;2118310;84;20947;-84
2022/04/03 13:49:00;;;;;;;9.03;5.87;;;;;;;3.87;46.40;98688.77;2125524;84;21034;-85
2022/04/03 13:52:01;;;;;;;12.47;7.60;;;;;;;4.02;46.52;98685.85;2123668;84;21009;-83
2022/04/03 13:55:02;;;;;;;6.40;5.07;;;;;;;4.12;46.99;98682.34;2120047;84;21046;-83
2022/04/03 13:58:03;;;;;;;15.07;7.00;;;;;;;4.00;46.71;98680.63;2118118;84;21034;-83
2022/04/03 14:01:03;;;;;;;8.73;5.30;;;;;;;3.88;46.70;98683.20;2123433;84;20935;-82
2022/04/03 14:04:04;;;;;;;7.40;4.93;;;;;;;3.60;46.64;98686.08;2110984;83;21046;-82
2022/04/03 14:07:05;;;;;;;4.90;4.20;;;;;;;3.40;47.43;98689.19;2120157;84;20947;-83
2022/04/03 14:10:05;;;;;;;7.57;5.73;;;;;;;3.13;47.66;98687.73;2117724;84;21358;-81
2022/04/03 14:13:06;;;;;;;8.93;5.40;;;;;;;3.04;48.02;98679.64;2118081;84;21378;-82
2022/04/03 14:16:06;;;;;;;5.87;4.33;;;;;;;3.23;47.68;98682.52;2123598;84;20982;-82
2022/04/03 14:19:07;;;;;;;5.60;4.70;;;;;;;3.52;48.41;98681.05;2113234;84;21307;-83
2022/04/03 14:22:08;;;;;;;8.17;4.30;;;;;;;3.66;47.09;98683.72;2126424;84;20966;-83
2022/04/03 14:25:08;;;;;;;7.13;5.30;;;;;;;3.60;47.67;98686.08;2124557;84;20916;-83
2022/04/03 14:28:10;;;;;;;7.87;5.20;;;;;;;3.55;48.26;98691.90;2120832;84;20994;-83
2022/04/03 14:31:10;;;;;;;8.70;5.93;;;;;;;3.51;47.39;98688.33;2119014;84;20971;-84
2022/04/03 14:34:11;;;;;;;18.07;11.00;;;;;;;3.50;47.87;98689.15;2125286;84;21018;-82